sensor_id;sensor_type;location;lat;lon;timestamp;noise_LAeq;noise_LA_min;noise_LA_max;noise_LA01;noise_LA95
40465;Laerm;30489;48.982;8.394;2023-04-16T00:01:12;38.60;35.94;40.89;;
40465;Laerm;30489;48.982;8.394;2023-04-16T00:03:22;38.65;36.20;41.06;;
40465;Laerm;30489;48.982;8.394;2023-04-16T00:05:32;38.69;35.94;41.61;;
40465;Laerm;30489;48.982;8.394;2023-04-16T00:07:43;38.66;35.94;40.89;;
40465;Laerm;30489;48.982;8.394;2023-04-16T00:09:53;38.65;36.20;40.71;;
40465;Laerm;30489;48.982;8.394;2023-04-16T00:12:03;38.67;35.94;40.71;;
40465;Laerm;30489;48.982;8.394;2023-04-16T00:14:13;38.64;35.94;40.89;;
40465;Laerm;30489;48.982;8.394;2023-04-16T00:16:24;38.71;35.36;41.46;;
40465;Laerm;30489;48.982;8.394;2023-04-16T00:18:34;38.68;36.20;40.89;;
40465;Laerm;30489;48.982;8.394;2023-04-16T00:20:44;38.67;35.94;40.98;;
40465;Laerm;30489;48.982;8.394;2023-04-16T00:22:55;38.63;35.94;40.71;;
40465;Laerm;30489;48.982;8.394;2023-04-16T00:25:05;38.68;36.20;40.71;;
40465;Laerm;30489;48.982;8.394;2023-04-16T00:27:15;38.67;35.66;41.46;;
40465;Laerm;30489;48.982;8.394;2023-04-16T00:29:25;38.68;35.66;40.80;;
40465;Laerm;30489;48.982;8.394;2023-04-16T00:31:37;38.65;35.36;40.98;;
40465;Laerm;30489;48.982;8.394;2023-04-16T00:33:47;38.63;35.94;40.71;;
40465;Laerm;30489;48.982;8.394;2023-04-16T00:35:58;38.60;35.94;40.62;;
40465;Laerm;30489;48.982;8.394;2023-04-16T00:38:08;38.57;35.04;40.53;;
40465;Laerm;30489;48.982;8.394;2023-04-16T00:40:18;38.60;35.94;40.53;;
40465;Laerm;30489;48.982;8.394;2023-04-16T00:42:28;38.65;36.45;40.71;;
40465;Laerm;30489;48.982;8.394;2023-04-16T00:44:39;38.65;36.20;41.06;;
40465;Laerm;30489;48.982;8.394;2023-04-16T00:46:49;38.66;36.20;40.62;;
40465;Laerm;30489;48.982;8.394;2023-04-16T00:48:59;38.62;35.94;40.71;;
40465;Laerm;30489;48.982;8.394;2023-04-16T00:51:10;38.62;35.66;40.98;;
40465;Laerm;30489;48.982;8.394;2023-04-16T00:53:20;38.63;35.66;40.80;;
40465;Laerm;30489;48.982;8.394;2023-04-16T00:55:31;38.60;35.94;40.80;;
40465;Laerm;30489;48.982;8.394;2023-04-16T00:57:41;38.68;35.66;40.80;;
40465;Laerm;30489;48.982;8.394;2023-04-16T00:59:52;38.65;35.94;40.71;;
40465;Laerm;30489;48.982;8.394;2023-04-16T01:02:03;38.64;35.94;41.46;;
40465;Laerm;30489;48.982;8.394;2023-04-16T01:04:13;38.61;35.66;40.80;;
40465;Laerm;30489;48.982;8.394;2023-04-16T01:06:23;38.64;36.20;40.43;;
40465;Laerm;30489;48.982;8.394;2023-04-16T01:08:34;38.63;35.94;40.89;;
40465;Laerm;30489;48.982;8.394;2023-04-16T01:10:44;38.66;35.36;40.71;;
40465;Laerm;30489;48.982;8.394;2023-04-16T01:12:54;38.74;36.34;40.80;;
40465;Laerm;30489;48.982;8.394;2023-04-16T01:15:04;38.64;36.10;41.03;;
40465;Laerm;30489;48.982;8.394;2023-04-16T01:17:15;38.67;35.94;40.71;;
40465;Laerm;30489;48.982;8.394;2023-04-16T01:19:25;38.65;36.10;40.71;;
40465;Laerm;30489;48.982;8.394;2023-04-16T01:21:35;38.61;35.94;40.62;;
40465;Laerm;30489;48.982;8.394;2023-04-16T01:23:46;38.62;35.66;40.80;;
40465;Laerm;30489;48.982;8.394;2023-04-16T01:25:56;38.65;36.20;41.14;;
40465;Laerm;30489;48.982;8.394;2023-04-16T01:28:06;38.63;35.94;40.62;;
40465;Laerm;30489;48.982;8.394;2023-04-16T01:30:16;38.62;35.94;40.71;;
40465;Laerm;30489;48.982;8.394;2023-04-16T01:32:27;38.63;35.94;41.06;;
40465;Laerm;30489;48.982;8.394;2023-04-16T01:34:40;38.66;35.94;40.71;;
40465;Laerm;30489;48.982;8.394;2023-04-16T01:36:50;38.65;36.20;40.98;;
40465;Laerm;30489;48.982;8.394;2023-04-16T01:39:01;38.69;35.94;40.53;;
40465;Laerm;30489;48.982;8.394;2023-04-16T01:41:11;38.65;36.20;40.80;;
40465;Laerm;30489;48.982;8.394;2023-04-16T01:43:22;38.68;36.20;40.71;;
40465;Laerm;30489;48.982;8.394;2023-04-16T01:45:32;38.62;35.66;40.80;;
40465;Laerm;30489;48.982;8.394;2023-04-16T01:47:42;38.61;36.20;40.80;;
40465;Laerm;30489;48.982;8.394;2023-04-16T01:49:53;38.60;36.20;40.98;;
40465;Laerm;30489;48.982;8.394;2023-04-16T01:52:03;38.63;35.66;40.71;;
40465;Laerm;30489;48.982;8.394;2023-04-16T01:54:13;38.60;36.20;40.71;;
40465;Laerm;30489;48.982;8.394;2023-04-16T01:56:24;38.61;35.94;40.62;;
40465;Laerm;30489;48.982;8.394;2023-04-16T01:58:34;38.63;35.94;40.89;;
40465;Laerm;30489;48.982;8.394;2023-04-16T02:00:44;38.65;35.66;40.53;;
40465;Laerm;30489;48.982;8.394;2023-04-16T02:05:09;38.64;36.20;40.80;;
40465;Laerm;30489;48.982;8.394;2023-04-16T02:07:19;38.64;36.20;40.43;;
40465;Laerm;30489;48.982;8.394;2023-04-16T02:09:30;38.60;35.66;40.62;;
40465;Laerm;30489;48.982;8.394;2023-04-16T02:11:40;38.60;35.66;40.80;;
40465;Laerm;30489;48.982;8.394;2023-04-16T02:13:50;38.62;35.94;40.98;;
40465;Laerm;30489;48.982;8.394;2023-04-16T02:16:01;38.61;35.94;40.71;;
40465;Laerm;30489;48.982;8.394;2023-04-16T02:18:11;38.61;36.20;40.80;;
40465;Laerm;30489;48.982;8.394;2023-04-16T02:20:21;38.65;35.94;40.71;;
40465;Laerm;30489;48.982;8.394;2023-04-16T02:22:32;38.62;35.94;40.89;;
40465;Laerm;30489;48.982;8.394;2023-04-16T02:24:42;38.56;36.20;40.89;;
40465;Laerm;30489;48.982;8.394;2023-04-16T02:26:53;38.63;35.94;40.89;;
40465;Laerm;30489;48.982;8.394;2023-04-16T02:29:03;38.59;35.94;40.80;;
40465;Laerm;30489;48.982;8.394;2023-04-16T02:31:13;38.56;35.94;40.62;;
40465;Laerm;30489;48.982;8.394;2023-04-16T02:33:26;38.61;36.20;40.98;;
40465;Laerm;30489;48.982;8.394;2023-04-16T02:35:37;38.62;35.66;41.75;;
40465;Laerm;30489;48.982;8.394;2023-04-16T02:37:48;38.63;35.94;40.62;;
40465;Laerm;30489;48.982;8.394;2023-04-16T02:39:58;38.61;35.94;40.80;;
40465;Laerm;30489;48.982;8.394;2023-04-16T02:42:08;38.70;35.94;40.71;;
40465;Laerm;30489;48.982;8.394;2023-04-16T02:44:18;38.58;35.66;40.53;;
40465;Laerm;30489;48.982;8.394;2023-04-16T02:46:29;38.56;35.94;40.43;;
40465;Laerm;30489;48.982;8.394;2023-04-16T02:48:39;38.72;35.94;41.46;;
40465;Laerm;30489;48.982;8.394;2023-04-16T02:50:49;38.57;35.94;40.62;;
40465;Laerm;30489;48.982;8.394;2023-04-16T02:52:59;38.64;36.20;40.89;;
40465;Laerm;30489;48.982;8.394;2023-04-16T02:55:10;38.60;35.36;40.53;;
40465;Laerm;30489;48.982;8.394;2023-04-16T02:57:20;38.55;35.94;40.43;;
40465;Laerm;30489;48.982;8.394;2023-04-16T02:59:30;38.62;35.94;40.80;;
40465;Laerm;30489;48.982;8.394;2023-04-16T03:01:41;38.65;36.20;40.53;;
40465;Laerm;30489;48.982;8.394;2023-04-16T03:03:51;38.68;35.94;41.22;;
40465;Laerm;30489;48.982;8.394;2023-04-16T03:06:01;38.69;35.94;40.62;;
40465;Laerm;30489;48.982;8.394;2023-04-16T03:08:11;38.67;36.20;40.71;;
40465;Laerm;30489;48.982;8.394;2023-04-16T03:10:21;38.66;35.86;40.71;;
40465;Laerm;30489;48.982;8.394;2023-04-16T03:12:33;38.66;36.20;40.71;;
40465;Laerm;30489;48.982;8.394;2023-04-16T03:14:43;38.62;35.94;40.71;;
40465;Laerm;30489;48.982;8.394;2023-04-16T03:16:53;38.63;35.94;40.71;;
40465;Laerm;30489;48.982;8.394;2023-04-16T03:19:03;38.58;35.66;40.89;;
40465;Laerm;30489;48.982;8.394;2023-04-16T03:21:13;38.67;36.20;41.61;;
40465;Laerm;30489;48.982;8.394;2023-04-16T03:23:24;38.69;36.45;40.89;;
40465;Laerm;30489;48.982;8.394;2023-04-16T03:25:34;38.58;35.94;40.89;;
40465;Laerm;30489;48.982;8.394;2023-04-16T03:27:45;38.63;35.94;41.14;;
40465;Laerm;30489;48.982;8.394;2023-04-16T03:29:55;38.63;35.66;40.71;;
40465;Laerm;30489;48.982;8.394;2023-04-16T03:32:06;38.69;36.20;40.80;;
40465;Laerm;30489;48.982;8.394;2023-04-16T03:34:16;38.72;35.36;40.71;;
40465;Laerm;30489;48.982;8.394;2023-04-16T03:36:26;38.65;35.36;40.80;;
40465;Laerm;30489;48.982;8.394;2023-04-16T03:38:36;38.58;35.66;40.71;;
40465;Laerm;30489;48.982;8.394;2023-04-16T03:40:47;38.69;35.94;40.71;;
40465;Laerm;30489;48.982;8.394;2023-04-16T03:42:57;38.68;36.20;41.14;;
40465;Laerm;30489;48.982;8.394;2023-04-16T03:45:07;38.68;36.20;40.71;;
40465;Laerm;30489;48.982;8.394;2023-04-16T03:47:18;38.66;35.86;40.71;;
40465;Laerm;30489;48.982;8.394;2023-04-16T03:49:29;38.66;36.10;41.14;;
40465;Laerm;30489;48.982;8.394;2023-04-16T03:51:39;38.61;36.20;40.80;;
40465;Laerm;30489;48.982;8.394;2023-04-16T03:53:49;38.58;35.94;40.80;;
40465;Laerm;30489;48.982;8.394;2023-04-16T03:56:00;38.58;35.94;40.53;;
40465;Laerm;30489;48.982;8.394;2023-04-16T03:58:10;38.65;35.94;40.62;;
40465;Laerm;30489;48.982;8.394;2023-04-16T04:00:20;38.68;35.36;41.22;;
40465;Laerm;30489;48.982;8.394;2023-04-16T04:02:31;38.56;35.94;40.43;;
40465;Laerm;30489;48.982;8.394;2023-04-16T04:04:41;38.66;35.94;41.06;;
40465;Laerm;30489;48.982;8.394;2023-04-16T04:06:51;38.67;36.20;40.62;;
40465;Laerm;30489;48.982;8.394;2023-04-16T04:09:01;38.63;36.10;40.53;;
40465;Laerm;30489;48.982;8.394;2023-04-16T04:11:11;38.67;36.20;40.80;;
40465;Laerm;30489;48.982;8.394;2023-04-16T04:13:22;38.63;35.94;40.62;;
40465;Laerm;30489;48.982;8.394;2023-04-16T04:15:32;38.69;36.20;41.14;;
40465;Laerm;30489;48.982;8.394;2023-04-16T04:17:42;38.61;36.20;41.30;;
40465;Laerm;30489;48.982;8.394;2023-04-16T04:19:52;38.61;35.36;40.62;;
40465;Laerm;30489;48.982;8.394;2023-04-16T04:22:03;38.71;35.66;41.06;;
40465;Laerm;30489;48.982;8.394;2023-04-16T04:24:13;38.81;36.20;40.98;;
40465;Laerm;30489;48.982;8.394;2023-04-16T04:26:23;38.65;35.94;40.89;;
40465;Laerm;30489;48.982;8.394;2023-04-16T04:28:34;38.59;35.94;40.89;;
40465;Laerm;30489;48.982;8.394;2023-04-16T04:30:44;38.57;35.94;40.71;;
40465;Laerm;30489;48.982;8.394;2023-04-16T04:32:54;38.64;36.20;41.14;;
40465;Laerm;30489;48.982;8.394;2023-04-16T04:35:05;38.65;35.94;41.06;;
40465;Laerm;30489;48.982;8.394;2023-04-16T04:37:15;38.62;36.20;40.62;;
40465;Laerm;30489;48.982;8.394;2023-04-16T04:39:25;38.60;35.66;40.53;;
40465;Laerm;30489;48.982;8.394;2023-04-16T04:41:36;38.59;35.94;40.62;;
40465;Laerm;30489;48.982;8.394;2023-04-16T04:43:46;38.57;35.94;40.71;;
40465;Laerm;30489;48.982;8.394;2023-04-16T04:45:56;38.57;35.94;40.89;;
40465;Laerm;30489;48.982;8.394;2023-04-16T04:48:06;38.61;35.66;40.71;;
40465;Laerm;30489;48.982;8.394;2023-04-16T04:50:17;38.56;35.94;40.71;;
40465;Laerm;30489;48.982;8.394;2023-04-16T04:52:27;38.59;35.66;40.62;;
40465;Laerm;30489;48.982;8.394;2023-04-16T04:54:37;38.59;35.66;40.89;;
40465;Laerm;30489;48.982;8.394;2023-04-16T04:56:50;38.60;35.36;40.62;;
40465;Laerm;30489;48.982;8.394;2023-04-16T04:59:01;38.56;35.04;40.53;;
40465;Laerm;30489;48.982;8.394;2023-04-16T05:01:11;38.55;36.20;40.53;;
40465;Laerm;30489;48.982;8.394;2023-04-16T05:03:21;38.68;36.20;40.80;;
40465;Laerm;30489;48.982;8.394;2023-04-16T05:05:32;38.66;35.94;41.46;;
40465;Laerm;30489;48.982;8.394;2023-04-16T05:07:43;38.56;36.20;40.71;;
40465;Laerm;30489;48.982;8.394;2023-04-16T05:09:53;38.65;35.94;40.89;;
40465;Laerm;30489;48.982;8.394;2023-04-16T05:12:03;38.65;35.66;48.02;;
40465;Laerm;30489;48.982;8.394;2023-04-16T05:14:13;38.66;35.36;40.62;;
40465;Laerm;30489;48.982;8.394;2023-04-16T05:16:23;40.45;35.94;71.33;;
40465;Laerm;30489;48.982;8.394;2023-04-16T05:18:34;38.57;35.36;40.80;;
40465;Laerm;30489;48.982;8.394;2023-04-16T05:20:45;38.63;35.66;40.53;;
40465;Laerm;30489;48.982;8.394;2023-04-16T05:22:55;38.62;36.20;40.96;;
40465;Laerm;30489;48.982;8.394;2023-04-16T05:25:06;38.64;35.94;40.71;;
40465;Laerm;30489;48.982;8.394;2023-04-16T05:27:16;38.63;35.86;40.80;;
40465;Laerm;30489;48.982;8.394;2023-04-16T05:29:26;38.60;35.66;40.62;;
40465;Laerm;30489;48.982;8.394;2023-04-16T05:31:37;38.63;35.94;40.53;;
40465;Laerm;30489;48.982;8.394;2023-04-16T05:33:47;38.64;35.66;40.71;;
40465;Laerm;30489;48.982;8.394;2023-04-16T05:35:57;38.63;35.66;40.71;;
40465;Laerm;30489;48.982;8.394;2023-04-16T05:38:07;38.60;35.94;40.89;;
40465;Laerm;30489;48.982;8.394;2023-04-16T05:40:18;38.57;35.94;40.80;;
40465;Laerm;30489;48.982;8.394;2023-04-16T05:42:28;38.57;35.66;40.89;;
40465;Laerm;30489;48.982;8.394;2023-04-16T05:44:39;38.64;35.86;40.98;;
40465;Laerm;30489;48.982;8.394;2023-04-16T05:46:49;38.56;35.94;40.80;;
40465;Laerm;30489;48.982;8.394;2023-04-16T05:49:00;38.63;35.94;40.62;;
40465;Laerm;30489;48.982;8.394;2023-04-16T05:51:10;38.61;35.66;40.71;;
40465;Laerm;30489;48.982;8.394;2023-04-16T05:53:20;38.65;35.66;40.71;;
40465;Laerm;30489;48.982;8.394;2023-04-16T05:55:31;38.69;35.94;40.89;;
40465;Laerm;30489;48.982;8.394;2023-04-16T05:57:41;38.65;35.66;40.80;;
40465;Laerm;30489;48.982;8.394;2023-04-16T05:59:51;38.70;35.36;40.80;;
40465;Laerm;30489;48.982;8.394;2023-04-16T06:02:01;38.74;35.66;41.22;;
40465;Laerm;30489;48.982;8.394;2023-04-16T06:04:11;38.58;35.66;40.53;;
40465;Laerm;30489;48.982;8.394;2023-04-16T06:06:22;38.70;36.45;41.82;;
40465;Laerm;30489;48.982;8.394;2023-04-16T06:08:32;38.77;35.94;41.61;;
40465;Laerm;30489;48.982;8.394;2023-04-16T06:10:42;38.66;35.36;40.89;;
40465;Laerm;30489;48.982;8.394;2023-04-16T06:12:54;38.66;35.86;40.71;;
40465;Laerm;30489;48.982;8.394;2023-04-16T06:15:04;38.66;36.34;40.71;;
40465;Laerm;30489;48.982;8.394;2023-04-16T06:17:15;38.67;35.66;40.53;;
40465;Laerm;30489;48.982;8.394;2023-04-16T06:19:25;38.76;36.20;40.71;;
40465;Laerm;30489;48.982;8.394;2023-04-16T06:21:35;38.69;35.36;40.71;;
40465;Laerm;30489;48.982;8.394;2023-04-16T06:23:46;38.64;35.66;40.89;;
40465;Laerm;30489;48.982;8.394;2023-04-16T06:25:57;38.68;35.94;40.71;;
40465;Laerm;30489;48.982;8.394;2023-04-16T06:28:07;38.67;36.20;40.89;;
40465;Laerm;30489;48.982;8.394;2023-04-16T06:30:17;38.68;36.45;40.62;;
40465;Laerm;30489;48.982;8.394;2023-04-16T06:32:28;38.66;36.20;40.43;;
40465;Laerm;30489;48.982;8.394;2023-04-16T06:34:39;38.70;35.94;40.53;;
40465;Laerm;30489;48.982;8.394;2023-04-16T06:36:49;38.69;35.94;40.71;;
40465;Laerm;30489;48.982;8.394;2023-04-16T06:39:00;38.67;36.20;40.62;;
40465;Laerm;30489;48.982;8.394;2023-04-16T06:41:11;38.70;36.20;40.80;;
40465;Laerm;30489;48.982;8.394;2023-04-16T06:43:22;38.69;36.20;40.62;;
40465;Laerm;30489;48.982;8.394;2023-04-16T06:45:32;38.73;35.94;40.62;;
40465;Laerm;30489;48.982;8.394;2023-04-16T06:47:42;38.70;35.66;40.62;;
40465;Laerm;30489;48.982;8.394;2023-04-16T06:49:55;38.74;36.45;40.80;;
40465;Laerm;30489;48.982;8.394;2023-04-16T06:52:05;38.75;36.20;40.71;;
40465;Laerm;30489;48.982;8.394;2023-04-16T06:54:15;38.73;36.20;40.71;;
40465;Laerm;30489;48.982;8.394;2023-04-16T06:56:29;38.71;35.66;41.14;;
40465;Laerm;30489;48.982;8.394;2023-04-16T06:58:39;38.66;36.20;40.53;;
40465;Laerm;30489;48.982;8.394;2023-04-16T07:00:50;38.66;35.66;40.80;;
40465;Laerm;30489;48.982;8.394;2023-04-16T07:03:00;38.67;36.20;40.71;;
40465;Laerm;30489;48.982;8.394;2023-04-16T07:05:10;38.66;36.45;40.89;;
40465;Laerm;30489;48.982;8.394;2023-04-16T07:07:21;38.61;35.94;40.62;;
40465;Laerm;30489;48.982;8.394;2023-04-16T07:09:31;38.62;35.94;40.62;;
40465;Laerm;30489;48.982;8.394;2023-04-16T07:11:42;38.61;36.20;40.62;;
40465;Laerm;30489;48.982;8.394;2023-04-16T07:13:53;38.67;35.94;40.62;;
40465;Laerm;30489;48.982;8.394;2023-04-16T07:16:03;38.67;36.20;40.88;;
40465;Laerm;30489;48.982;8.394;2023-04-16T07:18:14;38.75;35.94;40.80;;
40465;Laerm;30489;48.982;8.394;2023-04-16T07:20:25;38.83;36.20;40.89;;
40465;Laerm;30489;48.982;8.394;2023-04-16T07:22:35;38.74;36.20;40.89;;
40465;Laerm;30489;48.982;8.394;2023-04-16T07:24:46;38.66;35.36;40.53;;
40465;Laerm;30489;48.982;8.394;2023-04-16T07:26:56;38.68;36.20;40.71;;
40465;Laerm;30489;48.982;8.394;2023-04-16T07:29:06;38.70;36.20;40.89;;
40465;Laerm;30489;48.982;8.394;2023-04-16T07:31:17;38.73;36.20;40.89;;
40465;Laerm;30489;48.982;8.394;2023-04-16T07:33:27;38.69;36.20;40.80;;
40465;Laerm;30489;48.982;8.394;2023-04-16T07:35:37;38.66;35.94;40.80;;
40465;Laerm;30489;48.982;8.394;2023-04-16T07:37:48;38.60;35.66;40.71;;
40465;Laerm;30489;48.982;8.394;2023-04-16T07:39:58;38.62;35.94;40.53;;
40465;Laerm;30489;48.982;8.394;2023-04-16T07:42:09;38.62;35.94;40.62;;
40465;Laerm;30489;48.982;8.394;2023-04-16T07:44:19;38.62;35.94;40.53;;
40465;Laerm;30489;48.982;8.394;2023-04-16T07:46:30;38.64;35.94;41.38;;
40465;Laerm;30489;48.982;8.394;2023-04-16T07:48:41;38.60;35.94;40.53;;
40465;Laerm;30489;48.982;8.394;2023-04-16T07:50:51;38.58;36.20;40.53;;
40465;Laerm;30489;48.982;8.394;2023-04-16T07:53:01;38.57;35.36;40.71;;
40465;Laerm;30489;48.982;8.394;2023-04-16T07:55:12;38.58;35.66;40.89;;
40465;Laerm;30489;48.982;8.394;2023-04-16T07:57:22;38.59;35.94;40.80;;
40465;Laerm;30489;48.982;8.394;2023-04-16T07:59:32;38.58;35.31;40.53;;
40465;Laerm;30489;48.982;8.394;2023-04-16T08:01:42;38.56;35.94;40.89;;
40465;Laerm;30489;48.982;8.394;2023-04-16T08:03:55;38.59;35.36;40.63;;
40465;Laerm;30489;48.982;8.394;2023-04-16T08:06:05;38.55;35.94;41.11;;
40465;Laerm;30489;48.982;8.394;2023-04-16T08:08:16;38.54;35.36;40.71;;
40465;Laerm;30489;48.982;8.394;2023-04-16T08:10:26;38.52;35.66;40.80;;
40465;Laerm;30489;48.982;8.394;2023-04-16T08:12:36;38.56;35.66;41.38;;
40465;Laerm;30489;48.982;8.394;2023-04-16T08:14:47;38.59;35.94;40.53;;
40465;Laerm;30489;48.982;8.394;2023-04-16T08:16:57;38.62;35.94;40.98;;
40465;Laerm;30489;48.982;8.394;2023-04-16T08:19:08;38.57;36.20;40.53;;
40465;Laerm;30489;48.982;8.394;2023-04-16T08:21:18;38.58;35.94;40.53;;
40465;Laerm;30489;48.982;8.394;2023-04-16T08:23:28;38.58;36.20;40.71;;
40465;Laerm;30489;48.982;8.394;2023-04-16T08:25:39;38.56;36.45;40.62;;
40465;Laerm;30489;48.982;8.394;2023-04-16T08:27:50;38.57;35.66;40.53;;
40465;Laerm;30489;48.982;8.394;2023-04-16T08:30:00;38.61;35.66;40.89;;
40465;Laerm;30489;48.982;8.394;2023-04-16T08:32:10;38.59;35.94;40.80;;
40465;Laerm;30489;48.982;8.394;2023-04-16T08:34:20;38.60;35.94;40.62;;
40465;Laerm;30489;48.982;8.394;2023-04-16T08:36:31;38.58;36.20;41.06;;
40465;Laerm;30489;48.982;8.394;2023-04-16T08:38:41;38.60;35.36;40.53;;
40465;Laerm;30489;48.982;8.394;2023-04-16T08:40:51;38.65;36.20;40.53;;
40465;Laerm;30489;48.982;8.394;2023-04-16T08:43:04;38.77;36.20;40.62;;
40465;Laerm;30489;48.982;8.394;2023-04-16T08:45:17;38.87;36.45;40.71;;
40465;Laerm;30489;48.982;8.394;2023-04-16T08:47:28;38.91;36.69;40.71;;
40465;Laerm;30489;48.982;8.394;2023-04-16T08:49:44;38.93;36.45;40.71;;
40465;Laerm;30489;48.982;8.394;2023-04-16T08:51:55;38.93;36.45;40.80;;
40465;Laerm;30489;48.982;8.394;2023-04-16T08:54:08;38.98;36.45;41.06;;
40465;Laerm;30489;48.982;8.394;2023-04-16T08:56:22;39.00;36.69;40.53;;
40465;Laerm;30489;48.982;8.394;2023-04-16T08:58:32;39.00;36.91;40.71;;
40465;Laerm;30489;48.982;8.394;2023-04-16T09:00:44;39.00;36.45;40.96;;
40465;Laerm;30489;48.982;8.394;2023-04-16T09:02:55;38.98;36.91;40.80;;
40465;Laerm;30489;48.982;8.394;2023-04-16T09:05:05;39.01;36.69;40.80;;
40465;Laerm;30489;48.982;8.394;2023-04-16T09:07:16;39.01;36.56;40.89;;
40465;Laerm;30489;48.982;8.394;2023-04-16T09:09:28;39.01;36.69;41.06;;
40465;Laerm;30489;48.982;8.394;2023-04-16T09:11:38;38.98;36.69;40.71;;
40465;Laerm;30489;48.982;8.394;2023-04-16T09:13:49;39.00;36.91;45.11;;
40465;Laerm;30489;48.982;8.394;2023-04-16T09:15:59;39.04;36.56;40.71;;
40465;Laerm;30489;48.982;8.394;2023-04-16T09:18:10;39.09;37.12;40.89;;
40465;Laerm;30489;48.982;8.394;2023-04-16T09:20:21;39.10;36.91;40.80;;
40465;Laerm;30489;48.982;8.394;2023-04-16T09:22:31;39.07;36.69;40.71;;
40465;Laerm;30489;48.982;8.394;2023-04-16T09:24:41;39.08;36.45;40.98;;
40465;Laerm;30489;48.982;8.394;2023-04-16T09:26:51;39.05;36.69;41.75;;
40465;Laerm;30489;48.982;8.394;2023-04-16T09:29:03;39.07;36.77;40.89;;
40465;Laerm;30489;48.982;8.394;2023-04-16T09:31:14;39.07;36.69;40.89;;
40465;Laerm;30489;48.982;8.394;2023-04-16T09:33:24;39.09;36.45;40.89;;
40465;Laerm;30489;48.982;8.394;2023-04-16T09:35:43;39.07;36.69;41.06;;
40465;Laerm;30489;48.982;8.394;2023-04-16T09:37:54;39.09;36.91;40.71;;
40465;Laerm;30489;48.982;8.394;2023-04-16T09:40:05;39.09;36.69;40.80;;
40465;Laerm;30489;48.982;8.394;2023-04-16T09:42:19;39.05;36.69;40.80;;
40465;Laerm;30489;48.982;8.394;2023-04-16T09:44:33;39.04;36.69;40.80;;
40465;Laerm;30489;48.982;8.394;2023-04-16T09:46:44;39.01;36.69;40.89;;
40465;Laerm;30489;48.982;8.394;2023-04-16T09:48:54;38.99;36.69;41.96;;
40465;Laerm;30489;48.982;8.394;2023-04-16T09:51:05;38.95;36.69;41.82;;
40465;Laerm;30489;48.982;8.394;2023-04-16T09:53:22;38.93;36.69;40.63;;
40465;Laerm;30489;48.982;8.394;2023-04-16T09:55:32;38.94;36.69;42.71;;
40465;Laerm;30489;48.982;8.394;2023-04-16T09:57:43;38.93;35.94;40.53;;
40465;Laerm;30489;48.982;8.394;2023-04-16T09:59:54;38.91;36.69;41.14;;
40465;Laerm;30489;48.982;8.394;2023-04-16T10:02:07;38.94;36.45;41.14;;
40465;Laerm;30489;48.982;8.394;2023-04-16T10:04:17;38.90;36.45;40.89;;
40465;Laerm;30489;48.982;8.394;2023-04-16T10:06:28;38.97;36.69;42.93;;
40465;Laerm;30489;48.982;8.394;2023-04-16T10:08:41;38.93;36.69;40.71;;
40465;Laerm;30489;48.982;8.394;2023-04-16T10:10:52;38.97;36.69;43.68;;
40465;Laerm;30489;48.982;8.394;2023-04-16T10:13:03;38.99;36.20;40.80;;
40465;Laerm;30489;48.982;8.394;2023-04-16T10:15:13;38.99;36.91;41.14;;
40465;Laerm;30489;48.982;8.394;2023-04-16T10:17:24;39.02;36.91;41.82;;
40465;Laerm;30489;48.982;8.394;2023-04-16T10:19:35;39.00;36.91;41.14;;
40465;Laerm;30489;48.982;8.394;2023-04-16T10:21:45;39.01;36.69;40.80;;
40465;Laerm;30489;48.982;8.394;2023-04-16T10:23:56;38.98;36.69;41.06;;
40465;Laerm;30489;48.982;8.394;2023-04-16T10:26:06;39.00;37.12;40.62;;
40465;Laerm;30489;48.982;8.394;2023-04-16T10:28:16;38.97;36.91;40.89;;
40465;Laerm;30489;48.982;8.394;2023-04-16T10:30:27;38.93;36.69;40.62;;
40465;Laerm;30489;48.982;8.394;2023-04-16T10:32:38;38.95;36.91;40.71;;
40465;Laerm;30489;48.982;8.394;2023-04-16T10:34:49;39.00;36.91;48.61;;
40465;Laerm;30489;48.982;8.394;2023-04-16T10:36:59;39.00;36.91;42.98;;
40465;Laerm;30489;48.982;8.394;2023-04-16T10:39:10;39.02;36.69;41.06;;
40465;Laerm;30489;48.982;8.394;2023-04-16T10:41:21;38.99;36.77;41.06;;
40465;Laerm;30489;48.982;8.394;2023-04-16T10:43:32;39.01;36.69;40.71;;
40465;Laerm;30489;48.982;8.394;2023-04-16T10:45:42;38.98;36.69;40.63;;
40465;Laerm;30489;48.982;8.394;2023-04-16T10:47:54;38.96;36.45;40.71;;
40465;Laerm;30489;48.982;8.394;2023-04-16T10:50:14;38.98;36.91;40.71;;
40465;Laerm;30489;48.982;8.394;2023-04-16T10:52:24;38.98;36.91;40.98;;
40465;Laerm;30489;48.982;8.394;2023-04-16T10:54:38;39.03;36.69;42.82;;
40465;Laerm;30489;48.982;8.394;2023-04-16T10:56:49;39.04;36.69;40.98;;
40465;Laerm;30489;48.982;8.394;2023-04-16T10:58:59;39.06;36.69;40.98;;
40465;Laerm;30489;48.982;8.394;2023-04-16T11:01:10;39.08;36.20;41.06;;
40465;Laerm;30489;48.982;8.394;2023-04-16T11:03:22;39.06;37.12;42.29;;
40465;Laerm;30489;48.982;8.394;2023-04-16T11:05:53;39.05;36.91;41.82;;
40465;Laerm;30489;48.982;8.394;2023-04-16T11:08:12;39.08;36.91;41.89;;
40465;Laerm;30489;48.982;8.394;2023-04-16T11:10:22;39.07;36.45;40.98;;
40465;Laerm;30489;48.982;8.394;2023-04-16T11:14:50;39.02;36.91;40.89;;
40465;Laerm;30489;48.982;8.394;2023-04-16T11:17:02;39.02;36.91;41.30;;
40465;Laerm;30489;48.982;8.394;2023-04-16T11:19:15;38.99;36.45;40.80;;
40465;Laerm;30489;48.982;8.394;2023-04-16T11:21:32;38.98;36.45;42.53;;
40465;Laerm;30489;48.982;8.394;2023-04-16T11:23:47;38.96;36.45;40.80;;
40465;Laerm;30489;48.982;8.394;2023-04-16T11:25:57;38.92;36.45;40.98;;
40465;Laerm;30489;48.982;8.394;2023-04-16T11:28:08;38.88;36.69;40.98;;
40465;Laerm;30489;48.982;8.394;2023-04-16T11:30:27;38.86;36.45;40.54;;
40465;Laerm;30489;48.982;8.394;2023-04-16T11:32:38;38.87;36.69;40.89;;
40465;Laerm;30489;48.982;8.394;2023-04-16T11:34:48;38.83;36.45;40.98;;
40465;Laerm;30489;48.982;8.394;2023-04-16T11:36:59;38.79;36.34;41.06;;
40465;Laerm;30489;48.982;8.394;2023-04-16T11:39:09;38.79;35.66;40.71;;
40465;Laerm;30489;48.982;8.394;2023-04-16T11:41:19;38.72;36.45;40.53;;
40465;Laerm;30489;48.982;8.394;2023-04-16T11:43:30;38.78;36.20;40.71;;
40465;Laerm;30489;48.982;8.394;2023-04-16T11:45:57;38.77;36.20;40.80;;
40465;Laerm;30489;48.982;8.394;2023-04-16T11:48:07;38.81;36.45;40.80;;
40465;Laerm;30489;48.982;8.394;2023-04-16T11:52:28;38.78;36.20;40.71;;
40465;Laerm;30489;48.982;8.394;2023-04-16T11:54:39;38.74;36.20;40.62;;
40465;Laerm;30489;48.982;8.394;2023-04-16T11:56:50;38.73;36.20;40.80;;
40465;Laerm;30489;48.982;8.394;2023-04-16T11:59:05;38.70;36.20;40.71;;
40465;Laerm;30489;48.982;8.394;2023-04-16T12:01:18;38.69;35.94;40.71;;
40465;Laerm;30489;48.982;8.394;2023-04-16T12:03:39;38.72;35.86;40.62;;
40465;Laerm;30489;48.982;8.394;2023-04-16T12:05:52;38.71;35.94;40.80;;
40465;Laerm;30489;48.982;8.394;2023-04-16T12:08:03;38.70;35.36;40.71;;
40465;Laerm;30489;48.982;8.394;2023-04-16T12:10:14;38.70;36.20;40.62;;
40465;Laerm;30489;48.982;8.394;2023-04-16T12:12:28;38.64;36.20;40.62;;
40465;Laerm;30489;48.982;8.394;2023-04-16T12:14:48;38.65;36.45;41.14;;
40465;Laerm;30489;48.982;8.394;2023-04-16T12:17:19;38.70;35.94;40.71;;
40465;Laerm;30489;48.982;8.394;2023-04-16T12:19:30;38.64;35.94;40.89;;